createdAt,value
2022-12-27T00:00:05.847Z,9.92
2022-12-27T00:02:41.949Z,9.91
2022-12-27T00:05:11.457Z,9.97
2022-12-27T00:07:39.409Z,9.63
2022-12-27T00:10:09.659Z,9.93
2022-12-27T00:12:38.102Z,9.78
2022-12-27T00:15:06.658Z,10.04
2022-12-27T00:17:34.612Z,10.19
2022-12-27T00:20:10.797Z,10.27
2022-12-27T00:22:39.915Z,10.12
2022-12-27T00:25:09.001Z,10.40
2022-12-27T00:27:37.410Z,10.20
2022-12-27T00:30:06.239Z,10.04
2022-12-27T00:32:34.951Z,9.94
2022-12-27T00:35:02.841Z,10.09
2022-12-27T00:37:30.911Z,9.73
2022-12-27T00:40:00.213Z,9.90
2022-12-27T00:42:28.173Z,9.79
2022-12-27T00:44:58.174Z,9.96
2022-12-27T00:47:26.541Z,10.11
2022-12-27T00:49:54.499Z,10.09
2022-12-27T00:52:22.510Z,10.17
2022-12-27T00:54:50.824Z,10.31
2022-12-27T00:57:18.935Z,10.28
2022-12-27T00:59:47.993Z,10.35
2022-12-27T01:02:16.356Z,10.48
2022-12-27T01:04:44.256Z,10.05
2022-12-27T01:07:12.172Z,10.20
2022-12-27T01:09:40.518Z,10.28
2022-12-27T01:12:08.393Z,10.33
2022-12-27T01:14:36.363Z,10.33
2022-12-27T01:17:07.103Z,10.53
2022-12-27T01:19:39.940Z,10.43
2022-12-27T01:22:08.301Z,10.18
2022-12-27T01:24:36.294Z,10.26
2022-12-27T01:27:04.409Z,10.26
2022-12-27T01:29:32.743Z,10.19
2022-12-27T01:32:00.653Z,10.28
2022-12-27T01:34:28.774Z,10.22
2022-12-27T01:36:57.246Z,10.24
2022-12-27T01:39:25.389Z,10.27
2022-12-27T01:42:12.139Z,10.39
2022-12-27T01:44:40.554Z,10.43
2022-12-27T01:47:26.187Z,10.48
2022-12-27T01:50:00.180Z,10.71
2022-12-27T01:52:46.533Z,10.66
2022-12-27T01:55:35.797Z,10.67
2022-12-27T01:58:16.648Z,10.55
2022-12-27T02:00:46.849Z,10.80
2022-12-27T02:03:39.844Z,10.60
2022-12-27T02:06:10.663Z,10.53
2022-12-27T02:08:51.081Z,10.71
2022-12-27T02:11:43.091Z,11.16
2022-12-27T02:14:12.426Z,11.18
2022-12-27T02:16:40.688Z,11.29
2022-12-27T02:19:30.285Z,11.06
2022-12-27T02:22:24.774Z,11.07
2022-12-27T02:24:59.038Z,11.44
2022-12-27T02:27:42.894Z,11.25
2022-12-27T02:30:13.243Z,11.44
2022-12-27T02:32:54.098Z,11.33
2022-12-27T02:35:32.788Z,11.17
2022-12-27T02:38:13.124Z,11.63
2022-12-27T02:41:01.089Z,11.30
2022-12-27T02:43:48.358Z,11.27
2022-12-27T02:46:49.661Z,10.82
2022-12-27T02:49:45.163Z,11.22
2022-12-27T02:52:56.959Z,11.02
2022-12-27T02:56:23.874Z,11.09
2022-12-27T02:59:16.045Z,11.28
2022-12-27T03:02:12.111Z,11.54
2022-12-27T03:04:58.819Z,11.45
2022-12-27T03:08:02.336Z,11.61
2022-12-27T03:11:04.939Z,11.71
2022-12-27T03:13:58.839Z,11.50
2022-12-27T03:16:41.736Z,11.65
2022-12-27T03:19:40.833Z,11.63
2022-12-27T03:22:28.667Z,11.47
2022-12-27T03:25:16.218Z,11.45
2022-12-27T03:27:45.231Z,10.99
2022-12-27T03:30:32.714Z,11.14
2022-12-27T03:33:15.181Z,11.11
2022-12-27T03:36:09.526Z,10.76
2022-12-27T03:38:55.626Z,10.81
2022-12-27T03:41:46.586Z,10.33
2022-12-27T03:44:27.114Z,10.11
2022-12-27T03:46:57.183Z,10.28
2022-12-27T03:49:34.883Z,10.01
2022-12-27T03:52:17.747Z,10.07
2022-12-27T03:54:48.553Z,10.44
2022-12-27T03:57:22.246Z,10.36
2022-12-27T03:59:50.203Z,10.59
2022-12-27T04:02:21.983Z,10.54
2022-12-27T04:04:55.875Z,10.06
2022-12-27T04:07:23.717Z,10.13
2022-12-27T04:10:10.605Z,10.13
2022-12-27T04:12:57.237Z,10.26
2022-12-27T04:15:44.039Z,10.18
2022-12-27T04:18:30.654Z,10.10
2022-12-27T04:21:17.590Z,10.30
2022-12-27T04:24:04.080Z,10.33
2022-12-27T04:26:51.143Z,9.97
2022-12-27T04:29:37.721Z,9.71
2022-12-27T04:32:24.383Z,10.00
2022-12-27T04:34:52.187Z,10.16
2022-12-27T04:37:20.766Z,10.33
2022-12-27T04:40:07.916Z,10.57
2022-12-27T04:42:54.897Z,10.28
2022-12-27T04:45:41.830Z,10.08
2022-12-27T04:48:33.178Z,10.12
2022-12-27T04:51:20.210Z,10.57
2022-12-27T04:54:07.131Z,10.50
2022-12-27T04:56:35.080Z,10.43
2022-12-27T04:59:22.207Z,9.93
2022-12-27T05:02:05.771Z,10.21
2022-12-27T05:04:37.449Z,9.86
2022-12-27T05:07:28.035Z,9.95
2022-12-27T05:10:15.889Z,9.62
2022-12-27T05:13:02.599Z,9.82
2022-12-27T05:15:30.948Z,9.67
2022-12-27T05:17:58.915Z,9.68
2022-12-27T05:20:27.389Z,9.77
2022-12-27T05:23:14.239Z,9.96
2022-12-27T05:25:43.229Z,9.91
2022-12-27T05:28:15.139Z,9.47
2022-12-27T05:30:44.148Z,9.49
2022-12-27T05:33:13.025Z,9.72
2022-12-27T05:35:41.317Z,9.45
2022-12-27T05:38:09.561Z,9.75
2022-12-27T05:40:37.961Z,9.76
2022-12-27T05:43:06.103Z,9.68
2022-12-27T05:45:34.694Z,9.59
2022-12-27T05:48:04.993Z,9.70
2022-12-27T05:50:36.800Z,9.66
2022-12-27T05:53:11.302Z,9.85
2022-12-27T05:55:39.260Z,9.63
2022-12-27T05:58:07.462Z,9.41
2022-12-27T06:00:35.829Z,9.65
2022-12-27T06:03:04.287Z,9.20
2022-12-27T06:05:32.402Z,9.26
2022-12-27T06:08:00.408Z,9.63
2022-12-27T06:10:28.765Z,9.17
2022-12-27T06:13:00.439Z,9.38
2022-12-27T06:15:29.561Z,9.24
2022-12-27T06:17:59.544Z,9.27
2022-12-27T06:20:30.404Z,9.27
2022-12-27T06:23:00.414Z,9.43
2022-12-27T06:25:28.743Z,9.03
2022-12-27T06:27:56.882Z,8.90
2022-12-27T06:30:25.256Z,9.06
2022-12-27T06:32:54.002Z,9.33
2022-12-27T06:35:23.563Z,9.15
2022-12-27T06:37:52.877Z,8.58
2022-12-27T06:40:22.141Z,8.72
2022-12-27T06:42:50.145Z,8.60
2022-12-27T06:45:18.431Z,8.77
2022-12-27T06:47:46.287Z,8.54
2022-12-27T06:50:14.269Z,8.43
2022-12-27T06:52:42.627Z,8.36
2022-12-27T06:55:10.620Z,8.80
2022-12-27T06:57:38.641Z,8.40
2022-12-27T07:00:07.692Z,8.50
2022-12-27T07:02:36.012Z,8.88
2022-12-27T07:05:04.921Z,9.02
2022-12-27T07:07:34.369Z,9.24
2022-12-27T07:10:03.513Z,9.66
2022-12-27T07:12:36.426Z,10.07
2022-12-27T07:15:06.967Z,9.91
2022-12-27T07:17:36.445Z,10.19
2022-12-27T07:20:05.933Z,10.05
2022-12-27T07:22:34.524Z,10.43
2022-12-27T07:25:02.583Z,10.38
2022-12-27T07:27:33.936Z,10.14
2022-12-27T07:30:02.922Z,9.92
2022-12-27T07:32:34.108Z,9.71
2022-12-27T07:35:02.551Z,9.59
2022-12-27T07:37:30.601Z,9.81
2022-12-27T07:39:58.593Z,9.87
2022-12-27T07:42:29.079Z,9.99
2022-12-27T07:44:57.247Z,10.25
2022-12-27T07:47:25.363Z,10.50
2022-12-27T07:49:53.931Z,10.55
2022-12-27T07:52:23.047Z,11.11
2022-12-27T07:54:51.078Z,10.84
2022-12-27T07:57:19.535Z,10.70
2022-12-27T07:59:47.500Z,11.63
2022-12-27T08:02:16.851Z,11.17
2022-12-27T08:04:45.797Z,11.82
2022-12-27T08:07:17.017Z,11.32
2022-12-27T08:09:47.409Z,12.01
2022-12-27T08:12:15.538Z,11.55
2022-12-27T08:14:45.005Z,11.79
2022-12-27T08:17:24.868Z,11.95
2022-12-27T08:19:54.275Z,11.95
2022-12-27T08:22:24.209Z,11.64
2022-12-27T08:24:52.253Z,11.74
2022-12-27T08:27:22.604Z,10.82
2022-12-27T08:29:51.109Z,10.85
2022-12-27T08:32:19.207Z,10.82
2022-12-27T08:34:49.268Z,11.29
2022-12-27T08:37:17.666Z,11.15
2022-12-27T08:39:45.689Z,11.15
2022-12-27T08:42:14.497Z,11.22
2022-12-27T08:44:43.028Z,11.12
2022-12-27T08:47:11.053Z,12.02
2022-12-27T08:49:39.098Z,12.93
2022-12-27T08:52:07.490Z,13.34
2022-12-27T08:54:35.484Z,13.42
2022-12-27T08:57:03.513Z,14.37
2022-12-27T08:59:31.945Z,14.82
2022-12-27T09:02:00.288Z,15.09
2022-12-27T09:04:28.415Z,14.69
2022-12-27T09:06:56.778Z,13.34
2022-12-27T09:09:24.743Z,13.51
2022-12-27T09:11:52.812Z,13.78
2022-12-27T09:14:21.543Z,12.52
2022-12-27T09:16:50.328Z,13.09
2022-12-27T09:19:18.367Z,12.37
2022-12-27T09:21:46.883Z,13.18
2022-12-27T09:24:15.550Z,14.32
2022-12-27T09:26:43.683Z,14.06
2022-12-27T09:29:12.104Z,12.52
2022-12-27T09:31:40.205Z,11.38
2022-12-27T09:34:09.629Z,9.97
2022-12-27T09:36:39.764Z,9.24
2022-12-27T09:39:08.128Z,9.43
2022-12-27T09:45:13.651Z,10.56
2022-12-27T09:47:50.652Z,10.68
2022-12-27T09:50:31.195Z,10.53
2022-12-27T09:53:22.487Z,12.03
2022-12-27T09:55:56.608Z,12.27
2022-12-27T09:58:46.270Z,12.64
2022-12-27T10:01:37.382Z,13.46
2022-12-27T10:04:13.271Z,13.28
2022-12-27T10:06:50.310Z,12.83
2022-12-27T10:09:33.891Z,13.26
2022-12-27T10:12:10.307Z,13.08
2022-12-27T10:14:51.004Z,12.45
2022-12-27T10:17:53.089Z,13.06
2022-12-27T10:20:49.655Z,12.50
2022-12-27T10:23:23.123Z,13.02
2022-12-27T10:26:00.782Z,14.25
2022-12-27T10:28:44.038Z,14.59
2022-12-27T10:31:15.632Z,14.40
2022-12-27T10:33:45.455Z,12.68
2022-12-27T10:36:16.816Z,12.59
2022-12-27T10:38:45.242Z,14.44
2022-12-27T10:41:35.578Z,14.15
2022-12-27T10:44:12.755Z,14.43
2022-12-27T10:46:42.940Z,14.65
2022-12-27T10:49:30.073Z,15.00
2022-12-27T10:52:29.417Z,14.77
2022-12-27T10:54:57.747Z,15.43
2022-12-27T10:57:28.505Z,14.22
2022-12-27T11:00:19.134Z,15.57
2022-12-27T11:02:58.937Z,14.63
2022-12-27T11:05:29.541Z,15.73
2022-12-27T11:07:58.259Z,16.19
2022-12-27T11:10:31.721Z,16.40
2022-12-27T11:13:05.736Z,16.26
2022-12-27T11:15:39.103Z,16.69
2022-12-27T11:18:18.661Z,15.57
2022-12-27T11:20:50.429Z,16.29
2022-12-27T11:23:20.363Z,16.64
2022-12-27T11:25:56.012Z,15.43
2022-12-27T11:28:35.450Z,14.77
2022-12-27T11:31:06.848Z,14.63
2022-12-27T11:33:39.486Z,15.11
2022-12-27T11:36:09.613Z,14.44
2022-12-27T11:38:39.679Z,14.14
2022-12-27T11:41:12.957Z,12.22
2022-12-27T11:43:44.514Z,13.28
2022-12-27T11:46:44.025Z,12.92
2022-12-27T11:49:29.310Z,14.35
2022-12-27T11:52:15.772Z,13.89
2022-12-27T11:54:56.347Z,14.05
2022-12-27T11:58:00.762Z,14.27
2022-12-27T12:00:34.084Z,13.76
2022-12-27T12:03:28.234Z,13.62
2022-12-27T12:06:07.930Z,13.76
2022-12-27T12:08:54.834Z,13.11
2022-12-27T12:11:25.988Z,12.56
2022-12-27T12:14:18.647Z,12.19
2022-12-27T12:17:08.357Z,12.28
2022-12-27T12:19:36.781Z,12.26
2022-12-27T12:22:40.126Z,13.67
2022-12-27T12:25:27.225Z,12.66
2022-12-27T12:28:01.166Z,11.36
2022-12-27T12:30:39.266Z,11.93
2022-12-27T12:33:19.267Z,10.92
2022-12-27T12:36:06.840Z,9.84
2022-12-27T12:38:58.614Z,10.36
2022-12-27T12:41:36.178Z,9.92
2022-12-27T12:44:44.000Z,8.89
2022-12-27T12:47:38.191Z,8.74
2022-12-27T12:50:28.984Z,9.15
2022-12-27T12:53:23.315Z,8.82
2022-12-27T12:56:10.352Z,8.48
2022-12-27T12:58:48.063Z,8.51
2022-12-27T13:01:34.736Z,8.21
2022-12-27T13:04:31.076Z,7.79
2022-12-27T13:07:25.464Z,8.19
2022-12-27T13:10:16.413Z,8.16
2022-12-27T13:13:08.333Z,8.56
2022-12-27T13:15:47.209Z,8.58
2022-12-27T13:18:22.743Z,7.96
2022-12-27T13:21:43.088Z,7.67
2022-12-27T13:24:30.107Z,7.72
2022-12-27T13:27:49.428Z,7.22
2022-12-27T13:30:22.458Z,7.19
2022-12-27T13:33:00.462Z,7.44
2022-12-27T13:35:34.555Z,6.96
2022-12-27T13:38:27.789Z,7.19
2022-12-27T13:41:30.086Z,7.20
2022-12-27T13:44:17.799Z,7.19
2022-12-27T13:47:06.975Z,6.90
2022-12-27T13:50:01.715Z,6.64
2022-12-27T13:53:11.843Z,6.59
2022-12-27T13:55:57.456Z,6.79
2022-12-27T13:58:37.787Z,6.15
2022-12-27T14:01:12.547Z,6.25
2022-12-27T14:04:13.172Z,6.16
2022-12-27T14:06:53.922Z,6.09
2022-12-27T14:09:57.017Z,6.47
2022-12-27T14:13:02.483Z,5.95
2022-12-27T14:16:09.292Z,6.33
2022-12-27T14:18:37.580Z,6.24
2022-12-27T14:21:21.415Z,6.00
2022-12-27T14:24:19.752Z,6.17
2022-12-27T14:27:12.735Z,6.14
2022-12-27T14:29:57.633Z,6.54
2022-12-27T14:32:45.522Z,6.26
2022-12-27T14:35:29.663Z,5.77
2022-12-27T14:38:32.856Z,6.34
2022-12-27T14:41:19.802Z,5.58
2022-12-27T14:44:10.884Z,5.88
2022-12-27T14:46:57.561Z,6.10
2022-12-27T14:49:35.079Z,5.61
2022-12-27T14:52:23.432Z,5.88
2022-12-27T14:55:13.535Z,5.76
2022-12-27T14:58:03.087Z,5.53
2022-12-27T15:00:57.291Z,5.23
2022-12-27T15:04:20.623Z,5.36
2022-12-27T15:06:58.224Z,5.35
2022-12-27T15:09:32.259Z,5.74
2022-12-27T15:12:31.706Z,4.96
2022-12-27T15:15:18.142Z,5.47
2022-12-27T15:17:49.515Z,5.24
2022-12-27T15:20:39.187Z,5.05
2022-12-27T15:23:21.613Z,5.16
2022-12-27T15:25:52.840Z,5.14
2022-12-27T15:29:06.816Z,5.05
2022-12-27T15:31:57.479Z,4.97
2022-12-27T15:34:59.545Z,5.30
2022-12-27T15:37:53.818Z,5.44
2022-12-27T15:40:33.750Z,5.17
2022-12-27T15:43:06.431Z,5.50
2022-12-27T15:45:59.361Z,5.31
2022-12-27T15:49:04.927Z,5.67
2022-12-27T15:51:50.460Z,5.67
2022-12-27T15:55:09.359Z,5.09
2022-12-27T15:57:58.753Z,4.89
2022-12-27T16:00:33.593Z,4.94
2022-12-27T16:03:05.927Z,5.37
2022-12-27T16:05:44.194Z,4.90
2022-12-27T16:08:24.171Z,4.90
2022-12-27T16:10:52.885Z,4.61
2022-12-27T16:13:41.924Z,4.58
2022-12-27T16:16:33.664Z,4.70
2022-12-27T16:19:41.076Z,4.89
2022-12-27T16:22:25.216Z,4.78
2022-12-27T16:24:53.786Z,5.18
2022-12-27T16:27:29.312Z,4.82
2022-12-27T16:29:58.259Z,4.67
2022-12-27T16:32:28.343Z,4.92
2022-12-27T16:35:12.338Z,5.16
2022-12-27T16:37:53.340Z,4.79
2022-12-27T16:40:40.768Z,5.16
2022-12-27T16:43:09.022Z,4.82
2022-12-27T16:45:53.840Z,5.38
2022-12-27T16:48:58.069Z,5.63
2022-12-27T16:51:33.226Z,5.31
2022-12-27T16:54:31.256Z,5.09
2022-12-27T16:57:19.886Z,5.05
2022-12-27T17:00:22.339Z,5.47
2022-12-27T17:02:50.557Z,5.53
2022-12-27T17:05:22.109Z,5.47
2022-12-27T17:07:50.625Z,5.24
2022-12-27T17:10:41.981Z,5.41
2022-12-27T17:13:23.728Z,5.38
2022-12-27T17:16:05.053Z,4.94
2022-12-27T17:18:36.859Z,5.11
2022-12-27T17:21:37.208Z,5.15
2022-12-27T17:24:18.260Z,5.03
2022-12-27T17:26:58.518Z,4.42
2022-12-27T17:29:30.083Z,4.69
2022-12-27T17:32:27.297Z,4.87
2022-12-27T17:35:28.542Z,5.40
2022-12-27T17:38:09.389Z,4.94
2022-12-27T17:40:50.410Z,5.27
2022-12-27T17:43:46.323Z,5.24
2022-12-27T17:46:39.589Z,5.24
2022-12-27T17:49:09.362Z,5.21
2022-12-27T17:52:03.527Z,5.60
2022-12-27T17:54:50.844Z,5.58
2022-12-27T17:57:37.784Z,5.40
2022-12-27T18:00:08.898Z,5.17
2022-12-27T18:02:40.342Z,5.35
2022-12-27T18:05:14.190Z,5.48
2022-12-27T18:07:43.011Z,5.48
2022-12-27T18:10:37.788Z,5.39
2022-12-27T18:13:06.700Z,5.28
2022-12-27T18:15:37.548Z,5.14
2022-12-27T18:18:07.978Z,5.10
2022-12-27T18:20:40.979Z,5.03
2022-12-27T18:23:16.353Z,5.60
2022-12-27T18:25:44.813Z,4.62
2022-12-27T18:28:15.655Z,4.95
2022-12-27T18:30:54.079Z,4.55
2022-12-27T18:33:59.088Z,4.25
2022-12-27T18:36:31.618Z,4.48
2022-12-27T18:39:08.738Z,4.83
2022-12-27T18:41:38.049Z,4.66
2022-12-27T18:44:20.027Z,4.41
2022-12-27T18:46:54.162Z,4.43
2022-12-27T18:49:27.987Z,4.57
2022-12-27T18:51:56.508Z,3.69
2022-12-27T18:54:28.165Z,4.47
2022-12-27T18:56:57.412Z,4.35
2022-12-27T18:59:32.048Z,3.82
2022-12-27T19:02:01.928Z,4.18
2022-12-27T19:04:32.111Z,3.90
2022-12-27T19:07:15.777Z,3.75
2022-12-27T19:09:54.551Z,3.32
2022-12-27T19:12:35.602Z,3.17
2022-12-27T19:15:28.425Z,2.95
2022-12-27T19:18:00.039Z,2.03
2022-12-27T19:20:31.128Z,2.07
2022-12-27T19:23:04.787Z,2.38
2022-12-27T19:25:35.146Z,2.69
2022-12-27T19:28:25.166Z,2.01
2022-12-27T19:31:18.601Z,2.43
2022-12-27T19:33:53.883Z,2.82
2022-12-27T19:36:26.625Z,3.05
2022-12-27T19:38:55.246Z,3.03
2022-12-27T19:41:24.311Z,2.90
2022-12-27T19:43:52.439Z,2.63
2022-12-27T19:46:27.106Z,2.54
2022-12-27T19:51:46.966Z,1.82
2022-12-27T19:54:18.134Z,1.75
2022-12-27T19:56:46.627Z,2.13
2022-12-27T19:59:20.316Z,2.45
2022-12-27T20:01:49.010Z,2.51
2022-12-27T20:04:18.591Z,2.51
2022-12-27T20:06:48.571Z,2.34
2022-12-27T20:09:18.968Z,2.18
2022-12-27T20:11:49.683Z,2.35
2022-12-27T20:14:18.106Z,2.28
2022-12-27T20:16:47.081Z,1.03
2022-12-27T20:19:16.715Z,1.12
2022-12-27T20:21:44.728Z,1.53
2022-12-27T20:24:13.568Z,2.16
2022-12-27T20:26:42.693Z,2.20
2022-12-27T20:29:11.845Z,2.30
2022-12-27T20:31:44.656Z,2.42
2022-12-27T20:34:14.149Z,3.08
2022-12-27T20:36:42.260Z,3.13
2022-12-27T20:39:10.644Z,3.35
2022-12-27T20:41:39.407Z,2.81
2022-12-27T20:44:07.459Z,2.56
2022-12-27T20:46:35.537Z,2.72
2022-12-27T20:49:03.939Z,3.23
2022-12-27T20:51:33.534Z,2.81
2022-12-27T20:54:03.241Z,3.00
2022-12-27T20:56:31.679Z,2.99
2022-12-27T20:59:00.240Z,3.14
2022-12-27T21:01:28.281Z,3.40
2022-12-27T21:03:57.195Z,3.57
2022-12-27T21:06:27.847Z,3.67
2022-12-27T21:08:57.975Z,3.34
2022-12-27T21:11:29.117Z,2.93
2022-12-27T21:13:57.917Z,3.11
2022-12-27T21:16:27.767Z,2.96
2022-12-27T21:18:56.829Z,3.31
2022-12-27T21:21:28.730Z,2.92
2022-12-27T21:23:58.205Z,3.32
2022-12-27T21:26:32.967Z,3.28
2022-12-27T21:29:01.948Z,3.26
2022-12-27T21:31:30.998Z,3.32
2022-12-27T21:33:59.936Z,3.64
2022-12-27T21:36:30.238Z,3.76
2022-12-27T21:38:59.227Z,3.55
2022-12-27T21:41:33.409Z,3.64
2022-12-27T21:44:01.899Z,3.40
2022-12-27T21:46:35.667Z,3.27
2022-12-27T21:49:09.044Z,2.65
2022-12-27T21:51:38.192Z,1.22
2022-12-27T21:54:07.105Z,1.66
2022-12-27T21:56:35.580Z,1.98
2022-12-27T21:59:09.029Z,1.75
2022-12-27T22:01:49.951Z,1.31
2022-12-27T22:04:21.748Z,1.67
2022-12-27T22:06:50.186Z,1.89
2022-12-27T22:09:19.515Z,1.53
2022-12-27T22:11:48.438Z,1.67
2022-12-27T22:14:16.945Z,2.04
2022-12-27T22:16:44.959Z,1.93
2022-12-27T22:19:13.661Z,1.43
2022-12-27T22:21:42.646Z,1.57
2022-12-27T22:24:15.709Z,1.85
2022-12-27T22:26:44.282Z,1.69
2022-12-27T22:29:12.387Z,1.61
2022-12-27T22:31:41.346Z,1.80
2022-12-27T22:34:09.864Z,1.30
2022-12-27T22:36:38.004Z,1.20
2022-12-27T22:39:06.190Z,1.32
2022-12-27T22:41:36.333Z,1.73
2022-12-27T22:44:07.345Z,1.63
2022-12-27T22:47:24.521Z,1.01
2022-12-27T22:49:24.211Z,1.16
2022-12-27T22:51:52.577Z,1.42
2022-12-27T22:54:20.559Z,1.26
2022-12-27T22:57:08.879Z,1.32
2022-12-27T22:59:36.830Z,2.03
2022-12-27T23:02:05.144Z,2.35
2022-12-27T23:04:33.663Z,0.99
2022-12-27T23:07:02.344Z,1.36
2022-12-27T23:09:30.391Z,1.68
2022-12-27T23:11:58.762Z,1.51
2022-12-27T23:14:26.940Z,1.48
2022-12-27T23:16:54.928Z,0.83
2022-12-27T23:19:24.586Z,1.59
2022-12-27T23:21:52.675Z,1.49
2022-12-27T23:24:20.690Z,1.50
2022-12-27T23:26:49.163Z,1.69
2022-12-27T23:29:17.268Z,1.56
2022-12-27T23:31:55.309Z,1.23
2022-12-27T23:34:28.713Z,0.71
2022-12-27T23:37:01.316Z,0.92
2022-12-27T23:39:29.749Z,0.44
2022-12-27T23:41:57.669Z,0.35
2022-12-27T23:44:34.438Z,0.63
2022-12-27T23:47:04.713Z,0.22
2022-12-27T23:49:32.788Z,0.30
2022-12-27T23:52:01.164Z,0.76
2022-12-27T23:54:29.670Z,0.46
2022-12-27T23:56:57.896Z,0.67
2022-12-27T23:59:25.936Z,1.11
